createdAt,value
2023-05-22T00:00:41.038Z,949.53
2023-05-22T00:01:40.849Z,949.54
2023-05-22T00:02:40.812Z,949.56
2023-05-22T00:03:40.775Z,949.55
2023-05-22T00:04:40.863Z,949.56
2023-05-22T00:05:40.775Z,949.60
2023-05-22T00:06:40.719Z,949.53
2023-05-22T00:07:40.752Z,949.55
2023-05-22T00:08:40.686Z,949.59
2023-05-22T00:09:40.689Z,949.55
2023-05-22T00:10:40.819Z,949.57
2023-05-22T00:11:40.645Z,949.56
2023-05-22T00:12:40.672Z,949.56
2023-05-22T00:13:40.676Z,949.56
2023-05-22T00:14:40.613Z,949.57
2023-05-22T00:15:41.190Z,949.53
2023-05-22T00:16:40.630Z,949.56
2023-05-22T00:17:40.587Z,949.53
2023-05-22T00:18:40.589Z,949.54
2023-05-22T00:19:40.593Z,949.53
2023-05-22T00:20:40.780Z,949.50
2023-05-22T00:21:40.519Z,949.50
2023-05-22T00:22:40.502Z,949.50
2023-05-22T00:23:40.492Z,949.51
2023-05-22T00:24:40.484Z,949.47
2023-05-22T00:25:40.484Z,949.44
2023-05-22T00:26:40.455Z,949.46
2023-05-22T00:27:40.445Z,949.49
2023-05-22T00:28:40.430Z,949.52
2023-05-22T00:29:40.414Z,949.46
2023-05-22T00:30:40.683Z,949.50
2023-05-22T00:31:40.421Z,949.47
2023-05-22T00:32:40.397Z,949.47
2023-05-22T00:33:40.361Z,949.45
2023-05-22T00:34:40.393Z,949.45
2023-05-22T00:35:40.340Z,949.47
2023-05-22T00:36:40.325Z,949.46
2023-05-22T00:37:40.362Z,949.44
2023-05-22T00:38:40.291Z,949.46
2023-05-22T00:39:40.311Z,949.47
2023-05-22T00:40:40.470Z,949.47
2023-05-22T00:41:40.245Z,949.46
2023-05-22T00:42:40.240Z,949.47
2023-05-22T00:43:40.256Z,949.46
2023-05-22T00:44:40.203Z,949.50
2023-05-22T00:45:40.185Z,949.50
2023-05-22T00:46:40.222Z,949.49
2023-05-22T00:47:40.199Z,949.47
2023-05-22T00:48:40.163Z,949.47
2023-05-22T00:49:40.150Z,949.45
2023-05-22T00:50:40.344Z,949.49
2023-05-22T00:51:40.118Z,949.48
2023-05-22T00:52:40.094Z,949.43
2023-05-22T00:53:40.088Z,949.45
2023-05-22T00:54:40.090Z,949.42
2023-05-22T00:55:40.094Z,949.44
2023-05-22T00:56:40.051Z,949.45
2023-05-22T00:57:40.035Z,949.44
2023-05-22T00:58:40.062Z,949.43
2023-05-22T00:59:40.005Z,949.44
2023-05-22T01:00:40.179Z,949.41
2023-05-22T01:01:40.091Z,949.47
2023-05-22T01:02:40.066Z,949.50
2023-05-22T01:03:40.005Z,949.46
2023-05-22T01:04:39.949Z,949.47
2023-05-22T01:07:07.772Z,949.45
2023-05-22T01:07:13.110Z,949.46
2023-05-22T01:08:13.126Z,949.47
2023-05-22T01:09:13.095Z,949.46
2023-05-22T01:10:13.064Z,949.49
2023-05-22T01:11:13.058Z,949.49
2023-05-22T01:12:13.077Z,949.46
2023-05-22T01:13:13.036Z,949.49
2023-05-22T01:14:13.036Z,949.45
2023-05-22T01:15:13.012Z,949.45
2023-05-22T01:16:13.047Z,949.45
2023-05-22T01:17:13.004Z,949.43
2023-05-22T01:18:13.046Z,949.43
2023-05-22T01:19:12.995Z,949.44
2023-05-22T01:20:12.942Z,949.45
2023-05-22T01:21:12.923Z,949.47
2023-05-22T01:22:12.927Z,949.46
2023-05-22T01:23:12.907Z,949.53
2023-05-22T01:24:12.921Z,949.55
2023-05-22T01:25:12.899Z,949.55
2023-05-22T01:26:12.882Z,949.52
2023-05-22T01:27:12.866Z,949.51
2023-05-22T01:28:12.846Z,949.49
2023-05-22T01:29:12.834Z,949.55
2023-05-22T01:30:12.840Z,949.58
2023-05-22T01:31:12.826Z,949.56
2023-05-22T01:32:12.774Z,949.59
2023-05-22T01:33:12.815Z,949.55
2023-05-22T01:34:12.781Z,949.59
2023-05-22T01:35:12.763Z,949.54
2023-05-22T01:36:12.745Z,949.55
2023-05-22T01:37:12.724Z,949.56
2023-05-22T01:38:12.709Z,949.55
2023-05-22T01:39:12.696Z,949.57
2023-05-22T01:40:12.688Z,949.54
2023-05-22T01:41:12.673Z,949.55
2023-05-22T01:42:12.701Z,949.57
2023-05-22T01:43:12.656Z,949.60
2023-05-22T01:44:12.621Z,949.60
2023-05-22T01:45:12.610Z,949.57
2023-05-22T01:46:12.649Z,949.56
2023-05-22T01:47:12.604Z,949.59
2023-05-22T01:48:12.619Z,949.59
2023-05-22T01:49:12.554Z,949.65
2023-05-22T01:50:12.553Z,949.67
2023-05-22T01:51:12.532Z,949.65
2023-05-22T01:52:12.524Z,949.59
2023-05-22T01:53:12.527Z,949.64
2023-05-22T01:54:12.587Z,949.65
2023-05-22T01:55:12.464Z,949.68
2023-05-22T01:56:12.452Z,949.64
2023-05-22T01:57:12.453Z,949.70
2023-05-22T01:58:12.448Z,949.69
2023-05-22T01:59:12.417Z,949.69
2023-05-22T02:00:12.483Z,949.68
2023-05-22T02:01:12.652Z,949.67
2023-05-22T02:02:12.466Z,949.67
2023-05-22T02:03:12.477Z,949.66
2023-05-22T02:04:12.352Z,949.66
2023-05-22T02:05:12.377Z,949.66
2023-05-22T02:06:12.420Z,949.66
2023-05-22T02:07:12.586Z,949.68
2023-05-22T02:08:12.308Z,949.70
2023-05-22T02:09:12.310Z,949.69
2023-05-22T02:10:12.278Z,949.65
2023-05-22T02:11:12.335Z,949.69
2023-05-22T02:12:12.306Z,949.62
2023-05-22T02:13:12.241Z,949.66
2023-05-22T02:14:12.378Z,949.67
2023-05-22T02:15:12.216Z,949.64
2023-05-22T02:16:12.425Z,949.64
2023-05-22T02:17:12.199Z,949.60
2023-05-22T02:18:12.298Z,949.65
2023-05-22T02:19:12.263Z,949.58
2023-05-22T02:20:12.135Z,949.55
2023-05-22T02:21:12.138Z,949.60
2023-05-22T02:22:12.121Z,949.58
2023-05-22T02:23:12.102Z,949.57
2023-05-22T02:24:12.125Z,949.57
2023-05-22T02:25:12.067Z,949.52
2023-05-22T02:26:12.054Z,949.56
2023-05-22T02:27:12.048Z,949.56
2023-05-22T02:28:12.139Z,949.55
2023-05-22T02:29:12.015Z,949.57
2023-05-22T02:30:12.041Z,949.55
2023-05-22T02:31:12.055Z,949.59
2023-05-22T02:32:12.006Z,949.58
2023-05-22T02:33:11.999Z,949.62
2023-05-22T02:34:11.954Z,949.65
2023-05-22T02:35:11.939Z,949.64
2023-05-22T02:36:11.979Z,949.60
2023-05-22T02:37:11.912Z,949.61
2023-05-22T02:38:11.908Z,949.60
2023-05-22T02:39:11.892Z,949.61
2023-05-22T02:40:11.884Z,949.60
2023-05-22T02:41:11.865Z,949.58
2023-05-22T02:42:11.881Z,949.58
2023-05-22T02:43:11.841Z,949.60
2023-05-22T02:44:11.831Z,949.62
2023-05-22T02:45:11.826Z,949.59
2023-05-22T02:46:11.833Z,949.60
2023-05-22T02:47:11.785Z,949.60
2023-05-22T02:48:11.824Z,949.59
2023-05-22T02:49:11.758Z,949.66
2023-05-22T02:50:11.738Z,949.64
2023-05-22T02:51:11.730Z,949.66
2023-05-22T02:52:11.710Z,949.63
2023-05-22T02:53:11.709Z,949.64
2023-05-22T02:54:11.734Z,949.60
2023-05-22T02:55:11.667Z,949.65
2023-05-22T02:56:11.658Z,949.67
2023-05-22T02:57:11.640Z,949.63
2023-05-22T02:58:11.669Z,949.63
2023-05-22T02:59:11.616Z,949.67
2023-05-22T03:00:11.790Z,949.69
2023-05-22T03:01:11.621Z,949.68
2023-05-22T03:02:11.648Z,949.70
2023-05-22T03:03:11.698Z,949.71
2023-05-22T03:04:11.653Z,949.74
2023-05-22T03:05:11.569Z,949.69
2023-05-22T03:06:11.560Z,949.73
2023-05-22T03:07:11.513Z,949.71
2023-05-22T03:08:11.498Z,949.78
2023-05-22T03:09:11.488Z,949.75
2023-05-22T03:10:11.456Z,949.77
2023-05-22T03:11:11.462Z,949.72
2023-05-22T03:12:11.539Z,949.76
2023-05-22T03:13:11.429Z,949.72
2023-05-22T03:14:11.408Z,949.76
2023-05-22T03:15:11.402Z,949.77
2023-05-22T03:16:11.410Z,949.73
2023-05-22T03:17:11.381Z,949.78
2023-05-22T03:18:11.666Z,949.78
2023-05-22T03:19:11.458Z,949.81
2023-05-22T03:20:11.329Z,949.81
2023-05-22T03:21:11.321Z,949.81
2023-05-22T03:22:11.311Z,949.80
2023-05-22T03:23:11.302Z,949.90
2023-05-22T03:24:11.691Z,949.90
2023-05-22T03:25:11.294Z,949.82
2023-05-22T03:26:11.274Z,949.84
2023-05-22T03:27:11.237Z,949.86
2023-05-22T03:28:11.229Z,949.84
2023-05-22T03:29:11.271Z,949.82
2023-05-22T03:30:11.241Z,949.86
2023-05-22T03:31:11.191Z,949.88
2023-05-22T03:32:11.169Z,949.86
2023-05-22T03:33:11.223Z,949.88
2023-05-22T03:34:11.203Z,949.88
2023-05-22T03:35:11.180Z,949.89
2023-05-22T03:36:11.175Z,949.85
2023-05-22T03:37:11.109Z,949.86
2023-05-22T03:38:11.101Z,949.87
2023-05-22T03:39:11.129Z,949.84
2023-05-22T03:40:11.092Z,949.87
2023-05-22T03:41:11.049Z,949.86
2023-05-22T03:42:11.067Z,949.86
2023-05-22T03:43:11.052Z,949.87
2023-05-22T03:44:11.028Z,949.92
2023-05-22T03:45:11.006Z,949.89
2023-05-22T03:46:11.077Z,949.89
2023-05-22T03:47:11.068Z,949.83
2023-05-22T03:48:11.121Z,949.88
2023-05-22T03:49:10.962Z,949.89
2023-05-22T03:50:10.942Z,949.89
2023-05-22T03:51:10.960Z,949.88
2023-05-22T03:52:10.921Z,949.88
2023-05-22T03:53:10.904Z,949.89
2023-05-22T03:54:10.918Z,949.90
2023-05-22T03:55:10.912Z,949.91
2023-05-22T03:56:10.865Z,949.91
2023-05-22T03:57:10.882Z,949.93
2023-05-22T03:58:10.844Z,949.92
2023-05-22T03:59:10.819Z,949.88
2023-05-22T04:00:10.848Z,949.95
2023-05-22T04:01:10.800Z,949.92
2023-05-22T04:02:10.798Z,949.93
2023-05-22T04:03:10.826Z,949.94
2023-05-22T04:04:10.756Z,949.95
2023-05-22T04:05:10.758Z,949.94
2023-05-22T04:06:10.769Z,949.97
2023-05-22T04:07:10.701Z,949.99
2023-05-22T04:08:10.696Z,949.97
2023-05-22T04:09:10.681Z,949.97
2023-05-22T04:10:10.678Z,949.95
2023-05-22T04:11:10.660Z,949.96
2023-05-22T04:12:10.798Z,949.99
2023-05-22T04:13:10.641Z,949.99
2023-05-22T04:14:10.633Z,949.99
2023-05-22T04:15:10.636Z,949.97
2023-05-22T04:16:10.743Z,950.03
2023-05-22T04:17:10.573Z,950.04
2023-05-22T04:18:10.689Z,950.04
2023-05-22T04:19:10.567Z,950.05
2023-05-22T04:20:10.546Z,950.09
2023-05-22T04:21:10.533Z,950.11
2023-05-22T04:22:10.506Z,950.08
2023-05-22T04:23:10.508Z,950.08
2023-05-22T04:24:10.507Z,950.10
2023-05-22T04:25:10.597Z,950.13
2023-05-22T04:26:10.531Z,950.08
2023-05-22T04:27:10.460Z,950.07
2023-05-22T04:28:10.438Z,950.12
2023-05-22T04:29:10.437Z,950.13
2023-05-22T04:30:10.456Z,950.13
2023-05-22T04:31:10.460Z,950.17
2023-05-22T04:32:10.367Z,950.15
2023-05-22T04:33:10.464Z,950.15
2023-05-22T04:34:10.369Z,950.16
2023-05-22T04:35:10.340Z,950.20
2023-05-22T04:36:12.388Z,950.19
2023-05-22T04:37:10.328Z,950.17
2023-05-22T04:38:10.290Z,950.18
2023-05-22T04:39:10.270Z,950.20
2023-05-22T04:40:10.301Z,950.19
2023-05-22T04:41:10.277Z,950.18
2023-05-22T04:42:10.270Z,950.17
2023-05-22T04:43:10.288Z,950.17
2023-05-22T04:44:10.230Z,950.20
2023-05-22T04:45:10.202Z,950.20
2023-05-22T04:46:10.256Z,950.17
2023-05-22T04:47:10.214Z,950.22
2023-05-22T04:48:10.205Z,950.18
2023-05-22T04:49:10.156Z,950.16
2023-05-22T04:50:10.150Z,950.16
2023-05-22T04:51:10.125Z,950.12
2023-05-22T04:52:10.108Z,950.20
2023-05-22T04:53:10.101Z,950.18
2023-05-22T04:54:10.122Z,950.17
2023-05-22T04:55:10.072Z,950.21
2023-05-22T04:56:10.072Z,950.19
2023-05-22T04:57:10.056Z,950.19
2023-05-22T04:58:10.056Z,950.13
2023-05-22T04:59:10.024Z,950.12
2023-05-22T05:00:10.039Z,950.15
2023-05-22T05:01:09.998Z,950.17
2023-05-22T05:02:09.969Z,950.16
2023-05-22T05:03:10.013Z,950.13
2023-05-22T05:04:09.997Z,950.16
2023-05-22T05:05:09.931Z,950.21
2023-05-22T05:06:09.960Z,950.19
2023-05-22T05:07:09.911Z,950.18
2023-05-22T05:08:09.881Z,950.20
2023-05-22T05:09:09.880Z,950.21
2023-05-22T05:10:10.369Z,950.19
2023-05-22T05:11:09.857Z,950.19
2023-05-22T05:12:09.874Z,950.21
2023-05-22T05:13:09.829Z,950.18
2023-05-22T05:14:09.825Z,950.22
2023-05-22T05:15:09.837Z,950.23
2023-05-22T05:16:09.793Z,950.13
2023-05-22T05:17:09.802Z,950.17
2023-05-22T05:18:09.879Z,950.17
2023-05-22T05:19:09.862Z,950.16
2023-05-22T05:20:09.737Z,950.15
2023-05-22T05:21:09.712Z,950.18
2023-05-22T05:22:09.712Z,950.16
2023-05-22T05:23:09.698Z,950.17
2023-05-22T05:24:09.785Z,950.20
2023-05-22T05:25:11.597Z,950.22
2023-05-22T05:26:09.702Z,950.22
2023-05-22T05:27:09.645Z,950.20
2023-05-22T05:28:09.637Z,950.17
2023-05-22T05:29:09.620Z,950.20
2023-05-22T05:30:09.619Z,950.19
2023-05-22T05:31:09.609Z,950.21
2023-05-22T05:32:09.634Z,950.17
2023-05-22T05:33:09.654Z,950.17
2023-05-22T05:34:09.550Z,950.19
2023-05-22T05:35:09.525Z,950.24
2023-05-22T05:36:09.544Z,950.23
2023-05-22T05:37:09.638Z,950.21
2023-05-22T05:38:09.508Z,950.24
2023-05-22T05:39:09.472Z,950.21
2023-05-22T05:40:09.517Z,950.23
2023-05-22T05:41:09.462Z,950.24
2023-05-22T05:42:09.510Z,950.24
2023-05-22T05:43:09.610Z,950.24
2023-05-22T05:44:09.509Z,950.27
2023-05-22T05:45:09.404Z,950.23
2023-05-22T05:46:09.481Z,950.28
2023-05-22T05:47:09.361Z,950.25
2023-05-22T05:48:09.443Z,950.23
2023-05-22T05:49:10.118Z,950.26
2023-05-22T05:50:09.358Z,950.25
2023-05-22T05:51:09.333Z,950.22
2023-05-22T05:52:09.300Z,950.23
2023-05-22T05:53:09.314Z,950.26
2023-05-22T05:54:09.317Z,950.25
2023-05-22T05:55:09.270Z,950.27
2023-05-22T05:56:09.252Z,950.23
2023-05-22T05:57:09.263Z,950.26
2023-05-22T05:58:09.232Z,950.27
2023-05-22T05:59:09.212Z,950.21
2023-05-22T06:00:09.228Z,950.22
2023-05-22T06:01:09.217Z,950.28
2023-05-22T06:02:09.246Z,950.23
2023-05-22T06:03:09.261Z,950.23
2023-05-22T06:04:09.188Z,950.21
2023-05-22T06:05:09.280Z,950.22
2023-05-22T06:06:09.151Z,950.22
2023-05-22T06:07:09.092Z,950.24
2023-05-22T06:08:09.110Z,950.22
2023-05-22T06:09:09.085Z,950.23
2023-05-22T06:10:09.076Z,950.23
2023-05-22T06:11:09.050Z,950.18
2023-05-22T06:12:09.063Z,950.18
2023-05-22T06:13:09.043Z,950.17
2023-05-22T06:14:09.007Z,950.16
2023-05-22T06:15:09.005Z,950.18
2023-05-22T06:16:09.029Z,950.20
2023-05-22T06:17:08.997Z,950.21
2023-05-22T06:18:09.077Z,950.20
2023-05-22T06:19:09.004Z,950.21
2023-05-22T06:20:08.955Z,950.19
2023-05-22T06:21:08.909Z,950.19
2023-05-22T06:22:08.959Z,950.21
2023-05-22T06:23:08.893Z,950.22
2023-05-22T06:24:08.897Z,950.19
2023-05-22T06:25:08.867Z,950.17
2023-05-22T06:26:08.850Z,950.16
2023-05-22T06:27:08.841Z,950.19
2023-05-22T06:28:08.825Z,950.17
2023-05-22T06:29:08.814Z,950.17
2023-05-22T06:30:08.852Z,950.18
2023-05-22T06:31:08.793Z,950.15
2023-05-22T06:32:08.835Z,950.13
2023-05-22T06:33:08.855Z,950.09
2023-05-22T06:34:08.866Z,950.10
2023-05-22T06:35:08.726Z,950.11
2023-05-22T06:36:08.877Z,950.09
2023-05-22T06:37:08.703Z,950.09
2023-05-22T06:38:08.688Z,950.07
2023-05-22T06:39:08.722Z,950.12
2023-05-22T06:40:08.664Z,950.11
2023-05-22T06:41:08.670Z,950.12
2023-05-22T06:42:08.675Z,950.12
2023-05-22T06:43:08.626Z,950.13
2023-05-22T06:44:08.619Z,950.12
2023-05-22T06:45:08.602Z,950.08
2023-05-22T06:46:08.605Z,950.12
2023-05-22T06:47:08.562Z,950.08
2023-05-22T06:48:08.682Z,950.05
2023-05-22T06:49:08.538Z,950.04
2023-05-22T06:50:08.534Z,950.05
2023-05-22T06:51:08.517Z,950.07
2023-05-22T06:52:08.556Z,950.06
2023-05-22T06:53:08.501Z,950.05
2023-05-22T06:54:08.499Z,950.05
2023-05-22T06:55:08.463Z,950.02
2023-05-22T06:56:08.450Z,949.97
2023-05-22T06:57:08.431Z,950.03
2023-05-22T06:58:08.426Z,950.03
2023-05-22T06:59:08.398Z,950.00
2023-05-22T07:00:08.425Z,950.00
2023-05-22T07:01:08.397Z,950.00
2023-05-22T07:02:08.379Z,950.00
2023-05-22T07:03:08.436Z,950.01
2023-05-22T07:04:08.341Z,950.01
2023-05-22T07:05:08.341Z,950.04
2023-05-22T07:06:08.352Z,950.01
2023-05-22T07:07:08.288Z,950.01
2023-05-22T07:08:08.288Z,949.93
2023-05-22T07:09:08.326Z,949.96
2023-05-22T07:10:08.263Z,949.96
2023-05-22T07:11:08.240Z,949.96
2023-05-22T07:12:08.303Z,949.99
2023-05-22T07:13:08.223Z,949.99
2023-05-22T07:14:08.202Z,949.98
2023-05-22T07:15:08.188Z,949.98
2023-05-22T07:16:08.253Z,949.96
2023-05-22T07:17:08.178Z,949.98
2023-05-22T07:18:08.236Z,949.95
2023-05-22T07:19:08.164Z,949.95
2023-05-22T07:20:08.132Z,949.93
2023-05-22T07:21:08.105Z,949.92
2023-05-22T07:22:08.105Z,949.90
2023-05-22T07:23:08.105Z,949.92
2023-05-22T07:24:08.110Z,949.92
2023-05-22T07:25:08.057Z,949.93
2023-05-22T07:26:08.046Z,949.93
2023-05-22T07:27:08.041Z,949.90
2023-05-22T07:28:08.013Z,949.91
2023-05-22T07:29:07.996Z,949.91
2023-05-22T07:30:08.019Z,949.88
2023-05-22T07:31:08.007Z,949.90
2023-05-22T07:32:07.976Z,949.86
2023-05-22T07:33:07.973Z,949.85
2023-05-22T07:34:07.945Z,949.90
2023-05-22T07:35:07.928Z,949.87
2023-05-22T07:36:07.978Z,949.80
2023-05-22T07:37:07.896Z,949.83
2023-05-22T07:38:07.883Z,949.83
2023-05-22T07:39:07.860Z,949.84
2023-05-22T07:40:07.865Z,949.82
2023-05-22T07:41:07.843Z,949.86
2023-05-22T07:42:07.876Z,949.82
2023-05-22T07:43:07.828Z,949.83
2023-05-22T07:44:07.798Z,949.83
2023-05-22T07:45:07.792Z,949.80
2023-05-22T07:46:07.819Z,949.83
2023-05-22T07:47:07.775Z,949.83
2023-05-22T07:48:07.853Z,949.86
2023-05-22T07:49:07.780Z,949.84
2023-05-22T07:50:07.766Z,949.82
2023-05-22T07:51:07.745Z,949.82
2023-05-22T07:52:07.740Z,949.82
2023-05-22T07:53:07.688Z,949.79
2023-05-22T07:54:07.760Z,949.78
2023-05-22T07:55:07.669Z,949.83
2023-05-22T07:56:07.653Z,949.82
2023-05-22T07:57:07.634Z,949.83
2023-05-22T07:58:07.602Z,949.81
2023-05-22T07:59:07.591Z,949.78
2023-05-22T08:00:07.651Z,949.79
2023-05-22T08:01:09.408Z,949.80
2023-05-22T08:03:35.630Z,949.77
2023-05-22T08:03:41.175Z,949.77
2023-05-22T08:04:41.143Z,949.74
2023-05-22T08:05:41.168Z,949.75
2023-05-22T08:06:41.100Z,949.77
2023-05-22T08:07:41.008Z,949.69
2023-05-22T08:08:41.011Z,949.70
2023-05-22T08:09:40.994Z,949.75
2023-05-22T08:11:01.770Z,949.73
2023-05-22T08:11:41.001Z,949.69
2023-05-22T08:12:40.938Z,949.71
2023-05-22T08:13:41.033Z,949.71
2023-05-22T08:14:40.918Z,949.72
2023-05-22T08:15:40.905Z,949.68
2023-05-22T08:16:40.926Z,949.68
2023-05-22T08:17:40.960Z,949.69
2023-05-22T08:18:40.894Z,949.68
2023-05-22T08:19:40.970Z,949.63
2023-05-22T08:20:41.105Z,949.64
2023-05-22T08:21:40.846Z,949.65
2023-05-22T08:22:40.806Z,949.66
2023-05-22T08:23:40.850Z,949.65
2023-05-22T08:24:40.786Z,949.64
2023-05-22T08:25:40.788Z,949.62
2023-05-22T08:26:40.781Z,949.62
2023-05-22T08:27:40.780Z,949.63
2023-05-22T08:28:40.721Z,949.61
2023-05-22T08:29:41.027Z,949.62
2023-05-22T08:30:41.042Z,949.57
2023-05-22T08:31:40.807Z,949.56
2023-05-22T08:32:40.771Z,949.58
2023-05-22T08:33:40.663Z,949.55
2023-05-22T08:34:40.660Z,949.53
2023-05-22T08:35:40.696Z,949.49
2023-05-22T08:36:40.642Z,949.58
2023-05-22T08:37:40.629Z,949.55
2023-05-22T08:38:40.639Z,949.53
2023-05-22T08:39:40.587Z,949.51
2023-05-22T08:40:42.580Z,949.52
2023-05-22T08:41:40.604Z,949.48
2023-05-22T08:42:40.556Z,949.48
2023-05-22T08:43:40.525Z,949.49
2023-05-22T08:44:40.522Z,949.49
2023-05-22T08:45:40.529Z,949.47
2023-05-22T08:46:40.532Z,949.48
2023-05-22T08:47:40.607Z,949.43
2023-05-22T08:48:40.486Z,949.46
2023-05-22T08:49:40.451Z,949.45
2023-05-22T08:50:40.617Z,949.43
2023-05-22T08:51:40.423Z,949.46
2023-05-22T08:52:40.403Z,949.41
2023-05-22T08:53:40.427Z,949.38
2023-05-22T08:54:40.395Z,949.39
2023-05-22T08:55:40.374Z,949.42
2023-05-22T08:56:49.397Z,949.42
2023-05-22T08:57:40.346Z,949.39
2023-05-22T08:58:40.357Z,949.36
2023-05-22T08:59:40.353Z,949.37
2023-05-22T09:00:40.539Z,949.35
2023-05-22T09:01:40.558Z,949.36
2023-05-22T09:02:40.335Z,949.34
2023-05-22T09:03:40.347Z,949.37
2023-05-22T09:04:40.262Z,949.33
2023-05-22T09:05:40.307Z,949.35
2023-05-22T09:06:40.230Z,949.34
2023-05-22T09:07:40.215Z,949.38
2023-05-22T09:08:40.212Z,949.36
2023-05-22T09:09:40.212Z,949.35
2023-05-22T09:10:40.350Z,949.32
2023-05-22T09:11:40.206Z,949.33
2023-05-22T09:12:40.150Z,949.28
2023-05-22T09:13:40.131Z,949.33
2023-05-22T09:14:40.125Z,949.33
2023-05-22T09:15:40.123Z,949.33
2023-05-22T09:16:40.214Z,949.29
2023-05-22T09:17:40.154Z,949.27
2023-05-22T09:18:40.123Z,949.26
2023-05-22T09:19:40.168Z,949.24
2023-05-22T09:20:40.256Z,949.26
2023-05-22T09:21:40.056Z,949.22
2023-05-22T09:22:40.023Z,949.27
2023-05-22T09:23:40.059Z,949.28
2023-05-22T09:24:40.037Z,949.27
2023-05-22T09:25:39.973Z,949.31
2023-05-22T09:26:39.991Z,949.32
2023-05-22T09:27:39.956Z,949.33
2023-05-22T09:28:39.938Z,949.29
2023-05-22T09:29:40.229Z,949.27
2023-05-22T09:30:40.377Z,949.28
2023-05-22T09:31:39.956Z,949.31
2023-05-22T09:32:39.934Z,949.31
2023-05-22T09:33:39.891Z,949.27
2023-05-22T09:34:39.881Z,949.21
2023-05-22T09:35:40.166Z,949.25
2023-05-22T09:36:39.852Z,949.24
2023-05-22T09:37:39.844Z,949.26
2023-05-22T09:38:39.833Z,949.27
2023-05-22T09:39:39.814Z,949.28
2023-05-22T09:40:39.936Z,949.27
2023-05-22T09:41:39.915Z,949.30
2023-05-22T09:42:39.773Z,949.32
2023-05-22T09:43:39.757Z,949.31
2023-05-22T09:44:39.745Z,949.29
2023-05-22T09:45:39.755Z,949.33
2023-05-22T09:46:39.825Z,949.30
2023-05-22T09:47:39.748Z,949.29
2023-05-22T09:48:39.687Z,949.31
2023-05-22T09:49:39.674Z,949.29
2023-05-22T09:50:39.830Z,949.26
2023-05-22T09:51:39.658Z,949.22
2023-05-22T09:52:39.636Z,949.26
2023-05-22T09:53:39.656Z,949.23
2023-05-22T09:54:39.598Z,949.26
2023-05-22T09:55:39.591Z,949.27
2023-05-22T09:56:40.375Z,949.22
2023-05-22T09:57:39.557Z,949.25
2023-05-22T09:58:39.575Z,949.26
2023-05-22T09:59:39.559Z,949.24
2023-05-22T10:00:39.742Z,949.23
2023-05-22T10:01:39.587Z,949.17
2023-05-22T10:02:39.519Z,949.17
2023-05-22T10:03:39.492Z,949.07
2023-05-22T10:04:39.530Z,949.10
2023-05-22T10:05:39.483Z,949.09
2023-05-22T10:06:39.431Z,949.10
2023-05-22T10:07:39.475Z,949.09
2023-05-22T10:08:39.420Z,949.10
2023-05-22T10:09:39.545Z,949.09
2023-05-22T10:10:39.696Z,949.13
2023-05-22T10:11:39.405Z,949.09
2023-05-22T10:12:39.363Z,949.07
2023-05-22T10:13:39.350Z,949.09
2023-05-22T10:14:39.334Z,949.11
2023-05-22T10:15:39.327Z,949.09
2023-05-22T10:16:39.419Z,949.09
2023-05-22T10:17:39.374Z,949.10
2023-05-22T10:18:39.293Z,949.13
2023-05-22T10:19:42.238Z,949.10
2023-05-22T10:20:39.453Z,949.15
2023-05-22T10:21:39.248Z,949.18
2023-05-22T10:22:39.309Z,949.13
2023-05-22T10:23:39.254Z,949.12
2023-05-22T10:24:39.200Z,949.16
2023-05-22T10:25:39.233Z,949.13
2023-05-22T10:26:39.176Z,949.11
2023-05-22T10:27:39.160Z,949.13
2023-05-22T10:28:39.173Z,949.09
2023-05-22T10:29:39.153Z,949.13
2023-05-22T10:30:39.297Z,949.10
2023-05-22T10:31:40.622Z,949.10
2023-05-22T10:32:39.119Z,949.11
2023-05-22T10:33:39.143Z,949.09
2023-05-22T10:34:39.072Z,949.12
2023-05-22T10:35:39.128Z,949.11
2023-05-22T10:36:39.078Z,949.14
2023-05-22T10:37:39.051Z,949.12
2023-05-22T10:38:39.036Z,949.07
2023-05-22T10:39:39.032Z,949.06
2023-05-22T10:40:39.008Z,949.07
2023-05-22T10:41:39.302Z,949.12
2023-05-22T10:42:38.978Z,949.06
2023-05-22T10:43:39.070Z,949.06
2023-05-22T10:44:38.945Z,949.06
2023-05-22T10:45:38.966Z,949.03
2023-05-22T10:46:38.918Z,949.06
2023-05-22T10:47:39.019Z,949.06
2023-05-22T10:48:38.898Z,949.02
2023-05-22T10:49:38.884Z,949.03
2023-05-22T10:50:38.995Z,949.02
2023-05-22T10:51:38.853Z,948.99
2023-05-22T10:52:38.867Z,949.01
2023-05-22T10:53:38.981Z,949.04
2023-05-22T10:54:38.836Z,949.04
2023-05-22T10:55:38.808Z,949.04
2023-05-22T10:56:38.808Z,948.95
2023-05-22T10:57:38.790Z,948.94
2023-05-22T10:58:38.833Z,948.93
2023-05-22T10:59:38.815Z,948.93
2023-05-22T11:00:38.992Z,948.91
2023-05-22T11:01:38.944Z,948.91
2023-05-22T11:02:38.773Z,948.91
2023-05-22T11:03:38.798Z,948.89
2023-05-22T11:04:38.772Z,948.91
2023-05-22T11:05:38.707Z,948.89
2023-05-22T11:06:38.665Z,948.93
2023-05-22T11:07:38.670Z,948.89
2023-05-22T11:08:38.636Z,948.91
2023-05-22T11:09:38.656Z,948.86
2023-05-22T11:10:38.739Z,948.86
2023-05-22T11:11:38.627Z,948.85
2023-05-22T11:12:38.605Z,948.87
2023-05-22T11:13:38.579Z,948.88
2023-05-22T11:14:38.559Z,948.89
2023-05-22T11:15:38.553Z,948.87
2023-05-22T11:16:38.589Z,948.83
2023-05-22T11:17:38.570Z,948.84
2023-05-22T11:18:38.506Z,948.80
2023-05-22T11:19:38.524Z,948.82
2023-05-22T11:20:38.675Z,948.83
2023-05-22T11:21:38.501Z,948.82
2023-05-22T11:22:38.551Z,948.79
2023-05-22T11:23:38.493Z,948.81
2023-05-22T11:24:38.473Z,948.79
2023-05-22T11:25:38.425Z,948.79
2023-05-22T11:26:38.411Z,948.78
2023-05-22T11:27:38.449Z,948.75
2023-05-22T11:28:38.376Z,948.78
2023-05-22T11:29:38.434Z,948.78
2023-05-22T11:30:38.946Z,948.78
2023-05-22T11:31:38.464Z,948.78
2023-05-22T11:32:38.365Z,948.75
2023-05-22T11:33:38.324Z,948.75
2023-05-22T11:34:38.312Z,948.75
2023-05-22T11:35:38.313Z,948.72
2023-05-22T11:36:38.354Z,948.69
2023-05-22T11:37:38.278Z,948.72
2023-05-22T11:38:38.255Z,948.68
2023-05-22T11:39:38.243Z,948.67
2023-05-22T11:40:38.454Z,948.68
2023-05-22T11:41:38.515Z,948.65
2023-05-22T11:42:38.206Z,948.69
2023-05-22T11:43:38.194Z,948.69
2023-05-22T11:44:38.180Z,948.68
2023-05-22T11:45:38.158Z,948.65
2023-05-22T11:46:38.222Z,948.63
2023-05-22T11:47:38.271Z,948.66
2023-05-22T11:48:38.126Z,948.65
2023-05-22T11:49:38.106Z,948.67
2023-05-22T11:50:42.431Z,948.65
2023-05-22T11:51:38.165Z,948.65
2023-05-22T11:52:38.077Z,948.64
2023-05-22T11:53:38.105Z,948.62
2023-05-22T11:54:38.916Z,948.66
2023-05-22T11:55:38.187Z,948.60
2023-05-22T11:56:38.060Z,948.62
2023-05-22T11:57:38.067Z,948.65
2023-05-22T11:58:38.051Z,948.62
2023-05-22T11:59:38.036Z,948.62
2023-05-22T12:00:38.233Z,948.61
2023-05-22T12:01:37.952Z,948.61
2023-05-22T12:02:38.032Z,948.54
2023-05-22T12:03:38.049Z,948.56
2023-05-22T12:04:37.940Z,948.58
2023-05-22T12:05:37.933Z,948.55
2023-05-22T12:06:37.910Z,948.58
2023-05-22T12:07:37.897Z,948.58
2023-05-22T12:08:37.879Z,948.57
2023-05-22T12:09:37.895Z,948.58
2023-05-22T12:10:38.124Z,948.60
2023-05-22T12:11:37.864Z,948.63
2023-05-22T12:12:37.807Z,948.66
2023-05-22T12:13:37.807Z,948.62
2023-05-22T12:14:37.788Z,948.58
2023-05-22T12:15:37.764Z,948.56
2023-05-22T12:16:37.872Z,948.56
2023-05-22T12:17:37.880Z,948.54
2023-05-22T12:18:37.761Z,948.56
2023-05-22T12:19:37.768Z,948.52
2023-05-22T12:20:37.906Z,948.53
2023-05-22T12:21:37.694Z,948.55
2023-05-22T12:22:37.671Z,948.58
2023-05-22T12:23:37.799Z,948.52
2023-05-22T12:24:37.665Z,948.50
2023-05-22T12:25:37.636Z,948.53
2023-05-22T12:26:37.642Z,948.50
2023-05-22T12:27:38.615Z,948.48
2023-05-22T12:28:37.597Z,948.44
2023-05-22T12:29:37.629Z,948.46